Berghem, Netherlands
Current Conditions -  °F | °C
As of 12:25 PM on Tuesday 21 Oct 2014 (Local Time) from EHVK Reporting Station
Broken Clouds Broken Clouds  
Wind Chill: 54°   Ceiling: 1000
Heat Index: 54°   Visibility: 6mi
Dew Point: 52°   Wind: 18mph
Humidity: 94%   Direction: 200°SSW
Pressure: 29.59"   Gusts: NA
Location:  51.77°N, 5.57°E
Report Text: EHVK 211025Z AUTO 20016KT 9999 FEW006 SCT008 BKN010 12/11 Q1002 REDZ GRN 20016G26KT 9999 SCT015 BKN020 TEMPO 3000
Loading
Personal Weather Stations






























Interactive Weather Map
Tropical Storm Tracking
New forecast layout! Learn more

10-Day Weather Forecast

Advertisements
Track Severe Weather on mobile